Pinot Noir Commodore — WCZ7643 — position and weather

sailwx.info

Track history (hours):
 
Tides and Currents Weather Stations Pressure Air Temp Water Temp Dewpoint Dewpoint Depression Visibility Wind Speed Wind Dir Waves Ship Positions

Pinot Noir Commodore

Owner: PROESCHER, WARD H, Alameda, CA. More information available from US FCC via Universal Licensing System and Coast Guard Vessel Documentation Center.

Last reported at 2017-Dec-10 05:29 UTC. Time now 2017-Dec-13 18:59 UTC.
Position N 37°47' W 122°17'.

Length 25 m; draft 1 m.

Type: Passenger vessel. MMSI: 367437910.

Date/timePositionNaut miles runAvg speedWind from/ knotsBaromVisibWave heightAir tempDewpointWater temp
2017-Dec-10 05:29N 37°47' W 122°17'3 5.4
2017-Dec-10 05:00N 37°48' W 122°20'4 7.9
2017-Dec-10 04:30N 37°49' W 122°24'3 6.1
2017-Dec-10 04:00N 37°49' W 122°28'2 4.9
2017-Dec-10 03:30N 37°49' W 122°25'4 7.3
2017-Dec-10 03:00N 37°48' W 122°21'3 6.5
2017-Dec-10 02:30N 37°47' W 122°17'0 0.0
2017-Dec-10 02:00N 37°47' W 122°17'0 0.0
2017-Dec-10 01:30N 37°47' W 122°17'0 0.0
2017-Dec-10 00:05N 37°47' W 122°17'0 0.1
2017-Dec-10 00:01N 37°47' W 122°17'0 0.0
2017-Dec-09 07:07N 37°47' W 122°17'0 0.0
2017-Dec-09 07:01N 37°47' W 122°17'0 0.2
2017-Dec-09 06:30N 37°48' W 122°17'3 5.9
2017-Dec-09 06:00N 37°48' W 122°20'3 5.2
2017-Dec-09 05:30N 37°48' W 122°24'1 1.3
2017-Dec-09 05:00N 37°49' W 122°24'2 4.3
2017-Dec-09 04:30N 37°47' W 122°23'4 8.2
2017-Dec-09 04:00N 37°48' W 122°17'1 1.3
2017-Dec-09 03:30N 37°47' W 122°17'0 0.0
2017-Dec-09 03:00N 37°47' W 122°17'0 0.0
2017-Dec-09 02:30N 37°47' W 122°17'0 0.0
2017-Dec-09 02:00N 37°47' W 122°17'  
2017-Dec-03 06:27N 37°47' W 122°17'0 0.0
2017-Dec-03 06:00N 37°47' W 122°17'0 0.0
2017-Dec-03 05:30N 37°47' W 122°17'0 0.0
2017-Dec-03 05:00N 37°47' W 122°17'1 2.6
2017-Dec-03 04:31N 37°48' W 122°18'3 5.2
2017-Dec-03 04:00N 37°48' W 122°21'2 4.1
2017-Dec-03 03:30N 37°48' W 122°24'2 3.7
2017-Dec-03 03:00N 37°47' W 122°22'3 5.6
2017-Dec-03 02:30N 37°48' W 122°19'2 3.2
2017-Dec-03 02:00N 37°47' W 122°17'0 0.0
2017-Dec-03 01:30N 37°47' W 122°17'0 0.0
2017-Dec-03 01:00N 37°47' W 122°17'0 0.0
2017-Dec-02 21:56N 37°47' W 122°17'0 0.0
2017-Dec-02 21:30N 37°47' W 122°17'0 0.0
2017-Dec-02 07:51N 37°47' W 122°17'2 5.5
2017-Dec-02 07:31N 37°48' W 122°19'3 6.9
2017-Dec-02 07:01N 37°47' W 122°23'1 1.1
2017-Dec-02 06:31N 37°47' W 122°23'2 4.6
2017-Dec-02 06:00N 37°49' W 122°24'2 4.3
2017-Dec-02 05:30N 37°50' W 122°27'1 1.5
2017-Dec-02 05:00N 37°49' W 122°26'3 6.0
2017-Dec-02 04:31N 37°47' W 122°23'1 1.2
2017-Dec-02 04:00N 37°47' W 122°23'0 0.0
2017-Dec-02 03:30N 37°47' W 122°23'3 5.1
2017-Dec-02 03:00N 37°48' W 122°20'3 5.7
2017-Dec-02 02:30N 37°47' W 122°17'0 0.0
2017-Dec-01 22:42N 37°47' W 122°17'0 0.2
2017-Dec-01 22:31N 37°48' W 122°17'0 0.0
2017-Nov-30 19:47N 37°47' W 122°17'0 0.5
2017-Nov-30 19:30N 37°48' W 122°17'0 0.3
2017-Nov-30 19:00N 37°47' W 122°17'0 0.0
2017-Nov-30 18:31N 37°47' W 122°17'0 0.0
2017-Nov-30 18:00N 37°47' W 122°17'0 0.0
2017-Nov-30 17:30N 37°47' W 122°17'  
Track history (hours):
 
Tides and Currents Weather Stations Pressure Air Temp Water Temp Dewpoint Dewpoint Depression Visibility Wind Speed Wind Dir Waves Ship Positions

Pinot Noir Commodore

Owner: PROESCHER, WARD H, Alameda, CA. More information available from US FCC via Universal Licensing System and Coast Guard Vessel Documentation Center.

Last reported at 2017-Dec-10 05:29 UTC. Time now 2017-Dec-13 18:59 UTC.
Position N 37°47' W 122°17'.

Length 25 m; draft 1 m.

Type: Passenger vessel. MMSI: 367437910.

Date/timePositionNaut miles runAvg speedWind from/ knotsBaromVisibWave heightAir tempDewpointWater temp
2017-Dec-10 05:29N 37°47' W 122°17'3 5.4
2017-Dec-10 05:00N 37°48' W 122°20'4 7.9
2017-Dec-10 04:30N 37°49' W 122°24'3 6.1
2017-Dec-10 04:00N 37°49' W 122°28'2 4.9
2017-Dec-10 03:30N 37°49' W 122°25'4 7.3
2017-Dec-10 03:00N 37°48' W 122°21'3 6.5
2017-Dec-10 02:30N 37°47' W 122°17'0 0.0
2017-Dec-10 02:00N 37°47' W 122°17'0 0.0
2017-Dec-10 01:30N 37°47' W 122°17'0 0.0
2017-Dec-10 00:05N 37°47' W 122°17'0 0.1
2017-Dec-10 00:01N 37°47' W 122°17'0 0.0
2017-Dec-09 07:07N 37°47' W 122°17'0 0.0
2017-Dec-09 07:01N 37°47' W 122°17'0 0.2
2017-Dec-09 06:30N 37°48' W 122°17'3 5.9
2017-Dec-09 06:00N 37°48' W 122°20'3 5.2
2017-Dec-09 05:30N 37°48' W 122°24'1 1.3
2017-Dec-09 05:00N 37°49' W 122°24'2 4.3
2017-Dec-09 04:30N 37°47' W 122°23'4 8.2
2017-Dec-09 04:00N 37°48' W 122°17'1 1.3
2017-Dec-09 03:30N 37°47' W 122°17'0 0.0
2017-Dec-09 03:00N 37°47' W 122°17'0 0.0
2017-Dec-09 02:30N 37°47' W 122°17'0 0.0
2017-Dec-09 02:00N 37°47' W 122°17'  
2017-Dec-03 06:27N 37°47' W 122°17'0 0.0
2017-Dec-03 06:00N 37°47' W 122°17'0 0.0
2017-Dec-03 05:30N 37°47' W 122°17'0 0.0
2017-Dec-03 05:00N 37°47' W 122°17'1 2.6
2017-Dec-03 04:31N 37°48' W 122°18'3 5.2
2017-Dec-03 04:00N 37°48' W 122°21'2 4.1
2017-Dec-03 03:30N 37°48' W 122°24'2 3.7
2017-Dec-03 03:00N 37°47' W 122°22'3 5.6
2017-Dec-03 02:30N 37°48' W 122°19'2 3.2
2017-Dec-03 02:00N 37°47' W 122°17'0 0.0
2017-Dec-03 01:30N 37°47' W 122°17'0 0.0
2017-Dec-03 01:00N 37°47' W 122°17'0 0.0
2017-Dec-02 21:56N 37°47' W 122°17'0 0.0
2017-Dec-02 21:30N 37°47' W 122°17'0 0.0
2017-Dec-02 07:51N 37°47' W 122°17'2 5.5
2017-Dec-02 07:31N 37°48' W 122°19'3 6.9
2017-Dec-02 07:01N 37°47' W 122°23'1 1.1
2017-Dec-02 06:31N 37°47' W 122°23'2 4.6
2017-Dec-02 06:00N 37°49' W 122°24'2 4.3
2017-Dec-02 05:30N 37°50' W 122°27'1 1.5
2017-Dec-02 05:00N 37°49' W 122°26'3 6.0
2017-Dec-02 04:31N 37°47' W 122°23'1 1.2
2017-Dec-02 04:00N 37°47' W 122°23'0 0.0
2017-Dec-02 03:30N 37°47' W 122°23'3 5.1
2017-Dec-02 03:00N 37°48' W 122°20'3 5.7
2017-Dec-02 02:30N 37°47' W 122°17'0 0.0
2017-Dec-01 22:42N 37°47' W 122°17'0 0.2
2017-Dec-01 22:31N 37°48' W 122°17'0 0.0
2017-Nov-30 19:47N 37°47' W 122°17'0 0.5
2017-Nov-30 19:30N 37°48' W 122°17'0 0.3
2017-Nov-30 19:00N 37°47' W 122°17'0 0.0
2017-Nov-30 18:31N 37°47' W 122°17'0 0.0
2017-Nov-30 18:00N 37°47' W 122°17'0 0.0
2017-Nov-30 17:30N 37°47' W 122°17'  

Dump ship's entire track history